Aviation Digital Data Service (ADDS)

Output produced by METARs form (0832 UTC 19 April 2019)
found at http://www.aviationweather.gov/metar/data/
 
Forecast for: FBGZ (GHANZI , BW)
Text: FBGZ 190300Z 1906/1915 35010KT CAVOK
Forecast period: 0600 to 1500 UTC 19 April 2019
Forecast type: FROM: standard forecast or significant change
Winds: from the N (350 degrees) at 12 MPH (10 knots; 5.1 m/s)
Visibility: 6 or more miles 10+ km)
Ceiling: unknown
Clouds: missing
Weather: NSW  (no significant weather)